createdAt,value
2019-06-26T00:00:31.553Z,10.78
2019-06-26T00:01:06.823Z,11.00
2019-06-26T00:01:40.885Z,10.13
2019-06-26T00:02:15.038Z,10.38
2019-06-26T00:02:48.714Z,10.50
2019-06-26T00:03:22.741Z,11.28
2019-06-26T00:03:56.796Z,10.95
2019-06-26T00:04:30.680Z,11.97
2019-06-26T00:05:05.103Z,10.90
2019-06-26T00:05:39.152Z,10.63
2019-06-26T00:06:12.733Z,10.63
2019-06-26T00:06:46.794Z,10.68
2019-06-26T00:07:20.793Z,10.68
2019-06-26T00:07:54.394Z,10.43
2019-06-26T00:08:28.441Z,10.90
2019-06-26T00:09:02.505Z,10.75
2019-06-26T00:09:36.178Z,10.35
2019-06-26T00:10:10.167Z,10.58
2019-06-26T00:10:44.284Z,11.90
2019-06-26T00:11:18.039Z,10.82
2019-06-26T00:11:51.967Z,9.83
2019-06-26T00:12:25.912Z,12.20
2019-06-26T00:12:59.472Z,10.45
2019-06-26T00:13:33.390Z,10.40
2019-06-26T00:14:07.327Z,11.18
2019-06-26T00:14:40.896Z,10.72
2019-06-26T00:15:15.120Z,11.08
2019-06-26T00:15:49.170Z,10.08
2019-06-26T00:16:22.765Z,13.50
2019-06-26T00:16:56.850Z,13.45
2019-06-26T00:17:30.815Z,11.20
2019-06-26T00:18:04.338Z,10.90
2019-06-26T00:18:38.442Z,10.45
2019-06-26T00:19:12.529Z,9.88
2019-06-26T00:19:46.198Z,10.88
2019-06-26T00:20:20.620Z,10.88
2019-06-26T00:20:54.630Z,10.88
2019-06-26T00:21:28.391Z,10.90
2019-06-26T00:22:02.449Z,11.20
2019-06-26T00:22:36.423Z,11.28
2019-06-26T00:23:09.950Z,11.43
2019-06-26T00:23:44.025Z,11.28
2019-06-26T00:24:18.144Z,11.63
2019-06-26T00:24:51.927Z,9.80
2019-06-26T00:25:26.066Z,11.90
2019-06-26T00:26:00.200Z,14.75
2019-06-26T00:26:33.916Z,15.20
2019-06-26T00:27:08.274Z,16.30
2019-06-26T00:27:42.320Z,15.43
2019-06-26T00:28:15.857Z,10.85
2019-06-26T00:28:49.770Z,12.40
2019-06-26T00:29:23.803Z,11.83
2019-06-26T00:29:57.456Z,12.58
2019-06-26T00:30:31.571Z,11.50
2019-06-26T00:31:05.569Z,11.03
2019-06-26T00:31:39.247Z,10.60
2019-06-26T00:32:13.185Z,10.65
2019-06-26T00:32:47.337Z,11.70
2019-06-26T00:33:20.955Z,11.25
2019-06-26T00:33:54.955Z,10.15
2019-06-26T00:34:28.997Z,12.15
2019-06-26T00:35:02.939Z,11.28
2019-06-26T00:35:37.198Z,10.78
2019-06-26T00:36:11.166Z,12.50
2019-06-26T00:36:44.814Z,11.45
2019-06-26T00:37:18.838Z,11.33
2019-06-26T00:37:52.991Z,11.48
2019-06-26T00:38:26.780Z,11.55
2019-06-26T00:39:00.982Z,11.80
2019-06-26T00:39:35.044Z,11.60
2019-06-26T00:40:08.840Z,11.20
2019-06-26T00:40:42.897Z,11.10
2019-06-26T00:41:16.822Z,12.35
2019-06-26T00:41:50.515Z,12.75
2019-06-26T00:42:24.501Z,12.47
2019-06-26T00:42:58.564Z,12.37
2019-06-26T00:43:41.875Z,11.85
2019-06-26T00:44:07.834Z,13.30
2019-06-26T00:44:41.733Z,16.87
2019-06-26T00:45:15.769Z,18.12
2019-06-26T00:45:49.994Z,14.90
2019-06-26T00:46:24.058Z,11.30
2019-06-26T00:46:57.868Z,14.10
2019-06-26T00:47:31.900Z,14.70
2019-06-26T00:48:05.847Z,13.72
2019-06-26T00:48:39.717Z,13.72
2019-06-26T00:49:13.800Z,13.53
2019-06-26T00:49:48.354Z,13.28
2019-06-26T00:50:21.992Z,18.07
2019-06-26T00:50:55.906Z,13.58
2019-06-26T00:51:30.016Z,12.85
2019-06-26T00:52:03.770Z,13.40
2019-06-26T00:52:37.819Z,12.82
2019-06-26T00:53:11.876Z,12.05
2019-06-26T00:53:45.445Z,12.82
2019-06-26T00:54:19.379Z,12.13
2019-06-26T00:54:53.422Z,12.23
2019-06-26T00:55:26.988Z,12.13
2019-06-26T00:56:01.128Z,11.50
2019-06-26T00:56:35.290Z,11.73
2019-06-26T00:57:09.119Z,12.40
2019-06-26T00:57:43.181Z,11.70
2019-06-26T00:58:17.885Z,11.95
2019-06-26T00:58:51.421Z,12.73
2019-06-26T00:59:25.431Z,12.78
2019-06-26T01:00:01.209Z,12.28
2019-06-26T01:00:37.140Z,11.68
2019-06-26T01:01:11.161Z,11.88
2019-06-26T01:01:45.018Z,11.50
2019-06-26T01:02:18.736Z,11.85
2019-06-26T01:02:52.675Z,11.43
2019-06-26T01:03:26.609Z,10.85
2019-06-26T01:04:04.380Z,11.90
2019-06-26T01:04:41.107Z,11.35
2019-06-26T01:05:15.173Z,11.25
2019-06-26T01:05:48.835Z,11.00
2019-06-26T01:06:40.588Z,10.90
2019-06-26T01:07:14.549Z,11.12
2019-06-26T01:07:48.364Z,10.90
2019-06-26T01:08:22.369Z,10.85
2019-06-26T01:08:56.307Z,11.85
2019-06-26T01:09:29.913Z,11.28
2019-06-26T01:10:04.193Z,13.20
2019-06-26T01:10:38.186Z,11.03
2019-06-26T01:11:12.022Z,11.60
2019-06-26T01:11:45.942Z,11.40
2019-06-26T01:12:19.938Z,11.08
2019-06-26T01:12:53.532Z,10.70
2019-06-26T01:13:27.581Z,11.70
2019-06-26T01:14:01.692Z,11.18
2019-06-26T01:14:35.342Z,11.55
2019-06-26T01:15:10.171Z,11.68
2019-06-26T01:15:45.287Z,11.57
2019-06-26T01:16:18.943Z,11.48
2019-06-26T01:16:52.890Z,11.25
2019-06-26T01:17:26.883Z,11.95
2019-06-26T01:18:00.447Z,12.07
2019-06-26T01:18:34.565Z,10.53
2019-06-26T01:19:08.529Z,10.98
2019-06-26T01:19:42.272Z,11.93
2019-06-26T01:20:16.232Z,10.72
2019-06-26T01:20:50.189Z,11.28
2019-06-26T01:21:23.872Z,11.55
2019-06-26T01:21:57.780Z,10.82
2019-06-26T01:22:32.123Z,11.30
2019-06-26T01:23:13.137Z,12.13
2019-06-26T01:23:47.314Z,11.80
2019-06-26T01:24:25.356Z,11.60
2019-06-26T01:24:58.945Z,12.37
2019-06-26T01:25:32.959Z,11.15
2019-06-26T01:26:06.875Z,12.33
2019-06-26T01:26:40.469Z,12.10
2019-06-26T01:27:14.456Z,12.33
2019-06-26T01:27:48.690Z,12.43
2019-06-26T01:28:24.055Z,12.13
2019-06-26T01:28:58.781Z,11.85
2019-06-26T01:30:15.178Z,11.63
2019-06-26T01:30:47.996Z,12.00
2019-06-26T01:31:23.415Z,12.30
2019-06-26T01:31:57.529Z,12.45
2019-06-26T01:32:31.194Z,12.80
2019-06-26T01:33:05.454Z,11.57
2019-06-26T01:33:39.874Z,12.90
2019-06-26T01:34:13.585Z,11.35
2019-06-26T01:34:47.869Z,13.15
2019-06-26T01:35:22.432Z,12.73
2019-06-26T01:35:56.831Z,13.05
2019-06-26T01:36:31.019Z,12.60
2019-06-26T01:37:05.028Z,12.80
2019-06-26T01:37:38.787Z,12.50
2019-06-26T01:38:12.796Z,12.43
2019-06-26T01:38:46.925Z,12.60
2019-06-26T01:39:20.746Z,12.45
2019-06-26T01:39:55.428Z,13.15
2019-06-26T01:40:29.863Z,13.20
2019-06-26T01:41:03.489Z,11.68
2019-06-26T01:41:38.145Z,12.13
2019-06-26T01:42:12.298Z,12.00
2019-06-26T01:42:46.008Z,12.25
2019-06-26T01:43:20.222Z,12.70
2019-06-26T01:43:54.485Z,12.00
2019-06-26T01:44:28.110Z,12.47
2019-06-26T01:45:02.220Z,12.50
2019-06-26T01:45:36.447Z,13.08
2019-06-26T01:46:10.293Z,13.38
2019-06-26T01:46:44.305Z,14.07
2019-06-26T01:47:18.517Z,13.25
2019-06-26T01:47:52.173Z,13.48
2019-06-26T01:48:26.241Z,13.72
2019-06-26T01:49:00.530Z,13.25
2019-06-26T01:49:34.261Z,12.55
2019-06-26T01:50:08.602Z,12.80
2019-06-26T01:50:42.754Z,13.05
2019-06-26T01:51:17.402Z,12.33
2019-06-26T01:51:51.928Z,12.05
2019-06-26T01:52:26.399Z,12.50
2019-06-26T01:53:00.414Z,12.55
2019-06-26T01:53:34.665Z,12.35
2019-06-26T01:54:09.615Z,12.65
2019-06-26T01:54:43.581Z,13.20
2019-06-26T01:55:17.731Z,12.75
2019-06-26T01:55:51.922Z,12.60
2019-06-26T01:56:26.141Z,13.62
2019-06-26T01:57:01.137Z,13.05
2019-06-26T01:57:35.761Z,11.83
2019-06-26T01:58:09.855Z,13.40
2019-06-26T01:58:44.152Z,12.35
2019-06-26T01:59:18.730Z,12.30
2019-06-26T01:59:53.302Z,12.13
2019-06-26T02:00:28.072Z,12.70
2019-06-26T02:01:02.566Z,13.60
2019-06-26T02:01:37.580Z,12.15
2019-06-26T02:02:11.642Z,12.70
2019-06-26T02:02:46.311Z,13.08
2019-06-26T02:03:20.074Z,12.68
2019-06-26T02:03:54.547Z,11.85
2019-06-26T02:04:29.037Z,12.70
2019-06-26T02:05:03.202Z,13.30
2019-06-26T02:05:37.464Z,12.55
2019-06-26T02:06:11.990Z,14.05
2019-06-26T02:06:45.772Z,13.95
2019-06-26T02:07:20.083Z,14.78
2019-06-26T02:07:54.684Z,12.63
2019-06-26T02:08:28.983Z,12.85
2019-06-26T02:09:03.457Z,13.90
2019-06-26T02:09:37.963Z,12.82
2019-06-26T02:10:11.984Z,13.00
2019-06-26T02:10:46.817Z,12.68
2019-06-26T02:11:21.371Z,12.80
2019-06-26T02:11:56.262Z,13.80
2019-06-26T02:12:30.971Z,13.10
2019-06-26T02:13:05.087Z,12.68
2019-06-26T02:13:38.715Z,13.10
2019-06-26T02:14:12.873Z,12.20
2019-06-26T02:14:47.324Z,12.82
2019-06-26T02:15:21.118Z,13.55
2019-06-26T02:15:55.437Z,13.38
2019-06-26T02:16:29.931Z,13.03
2019-06-26T02:17:03.599Z,12.70
2019-06-26T02:17:37.738Z,11.97
2019-06-26T02:18:30.412Z,13.65
2019-06-26T02:19:04.944Z,12.85
2019-06-26T02:19:39.020Z,13.00
2019-06-26T02:20:12.994Z,13.13
2019-06-26T02:20:46.815Z,13.43
2019-06-26T02:21:21.200Z,14.03
2019-06-26T02:21:55.614Z,12.73
2019-06-26T02:22:29.470Z,12.50
2019-06-26T02:23:03.545Z,14.03
2019-06-26T02:23:37.760Z,13.00
2019-06-26T02:24:11.753Z,12.40
2019-06-26T02:24:45.934Z,13.75
2019-06-26T02:25:21.201Z,13.83
2019-06-26T02:25:54.967Z,13.18
2019-06-26T02:26:29.936Z,13.43
2019-06-26T02:27:04.353Z,13.75
2019-06-26T02:27:38.138Z,13.05
2019-06-26T02:28:12.925Z,13.53
2019-06-26T02:28:47.194Z,13.38
2019-06-26T02:29:21.065Z,14.23
2019-06-26T02:29:55.902Z,13.10
2019-06-26T02:30:29.869Z,14.23
2019-06-26T02:31:03.569Z,13.55
2019-06-26T02:31:37.542Z,12.90
2019-06-26T02:32:11.559Z,13.48
2019-06-26T02:32:45.099Z,13.13
2019-06-26T02:33:19.351Z,13.10
2019-06-26T02:33:54.083Z,13.40
2019-06-26T02:34:27.614Z,13.32
2019-06-26T02:35:01.524Z,13.58
2019-06-26T02:35:35.531Z,12.80
2019-06-26T02:36:09.116Z,13.55
2019-06-26T02:36:43.012Z,13.35
2019-06-26T02:37:17.137Z,14.70
2019-06-26T02:38:09.863Z,13.35
2019-06-26T02:38:44.083Z,14.63
2019-06-26T02:39:18.238Z,14.98
2019-06-26T02:39:52.067Z,14.70
2019-06-26T02:40:26.688Z,14.20
2019-06-26T02:41:00.894Z,13.95
2019-06-26T02:41:35.456Z,13.28
2019-06-26T02:42:09.750Z,14.10
2019-06-26T02:42:43.819Z,14.87
2019-06-26T02:43:17.565Z,13.48
2019-06-26T02:43:51.624Z,13.60
2019-06-26T02:44:25.688Z,13.55
2019-06-26T02:44:59.343Z,14.43
2019-06-26T02:45:36.433Z,14.15
2019-06-26T02:46:10.444Z,13.85
2019-06-26T02:46:44.888Z,13.48
2019-06-26T02:47:20.948Z,13.50
2019-06-26T02:47:55.304Z,14.60
2019-06-26T02:48:28.869Z,14.25
2019-06-26T02:49:03.041Z,13.68
2019-06-26T02:49:37.318Z,14.50
2019-06-26T02:50:11.511Z,14.28
2019-06-26T02:50:45.572Z,14.90
2019-06-26T02:51:19.682Z,13.25
2019-06-26T02:51:53.394Z,12.90
2019-06-26T02:52:27.470Z,13.38
2019-06-26T02:53:01.546Z,14.18
2019-06-26T02:53:35.256Z,14.60
2019-06-26T02:54:09.384Z,14.55
2019-06-26T02:54:43.429Z,14.80
2019-06-26T02:55:17.132Z,15.05
2019-06-26T02:55:51.627Z,14.15
2019-06-26T02:56:25.648Z,14.35
2019-06-26T02:56:59.284Z,15.20
2019-06-26T02:57:33.567Z,15.23
2019-06-26T02:58:07.576Z,14.85
2019-06-26T02:58:41.128Z,13.80
2019-06-26T02:59:15.128Z,15.25
2019-06-26T02:59:49.211Z,14.10
2019-06-26T03:00:22.837Z,14.90
2019-06-26T03:00:56.767Z,15.32
2019-06-26T03:01:30.789Z,14.30
2019-06-26T03:02:04.476Z,15.23
2019-06-26T03:02:38.511Z,15.48
2019-06-26T03:03:12.708Z,14.70
2019-06-26T03:03:46.297Z,15.30
2019-06-26T03:04:20.318Z,15.10
2019-06-26T03:04:54.347Z,14.18
2019-06-26T03:05:27.952Z,14.60
2019-06-26T03:06:01.885Z,15.03
2019-06-26T03:06:36.042Z,14.20
2019-06-26T03:07:09.786Z,14.93
2019-06-26T03:07:44.194Z,15.25
2019-06-26T03:08:18.245Z,14.80
2019-06-26T03:08:52.395Z,15.15
2019-06-26T03:09:26.778Z,14.73
2019-06-26T03:10:00.902Z,15.20
2019-06-26T03:10:34.651Z,15.95
2019-06-26T03:11:08.948Z,14.33
2019-06-26T03:11:44.753Z,15.32
2019-06-26T03:12:20.260Z,14.85
2019-06-26T03:12:54.669Z,14.65
2019-06-26T03:13:29.030Z,14.95
2019-06-26T03:14:02.819Z,14.98
2019-06-26T03:14:37.088Z,15.03
2019-06-26T03:15:11.664Z,15.68
2019-06-26T03:15:45.445Z,14.78
2019-06-26T03:16:19.647Z,15.25
2019-06-26T03:16:53.715Z,14.35
2019-06-26T03:17:27.451Z,14.75
2019-06-26T03:18:01.534Z,14.58
2019-06-26T03:18:35.677Z,14.65
2019-06-26T03:19:09.352Z,14.78
2019-06-26T03:19:43.411Z,15.60
2019-06-26T03:20:20.126Z,14.58
2019-06-26T03:20:57.313Z,15.45
2019-06-26T03:21:31.494Z,15.60
2019-06-26T03:22:05.580Z,14.15
2019-06-26T03:22:39.325Z,15.48
2019-06-26T03:23:13.298Z,14.68
2019-06-26T03:23:47.404Z,15.45
2019-06-26T03:24:21.216Z,15.13
2019-06-26T03:24:55.211Z,15.35
2019-06-26T03:25:29.501Z,15.28
2019-06-26T03:26:03.175Z,16.15
2019-06-26T03:26:37.580Z,15.63
2019-06-26T03:27:11.745Z,14.43
2019-06-26T03:27:45.402Z,15.15
2019-06-26T03:28:19.757Z,15.03
2019-06-26T03:28:53.818Z,14.90
2019-06-26T03:29:27.459Z,15.90
2019-06-26T03:30:01.557Z,15.23
2019-06-26T03:30:35.717Z,15.30
2019-06-26T03:31:09.326Z,16.70
2019-06-26T03:31:43.360Z,15.65
2019-06-26T03:32:17.472Z,15.60
2019-06-26T03:32:51.816Z,15.83
2019-06-26T03:33:25.884Z,15.78
2019-06-26T03:34:00.062Z,15.35
2019-06-26T03:34:33.934Z,15.40
2019-06-26T03:35:07.929Z,16.35
2019-06-26T03:35:41.954Z,16.48
2019-06-26T03:36:15.728Z,14.75
2019-06-26T03:36:49.813Z,15.58
2019-06-26T03:37:23.775Z,15.63
2019-06-26T03:37:57.675Z,15.00
2019-06-26T03:38:31.939Z,16.30
2019-06-26T03:39:06.988Z,16.62
2019-06-26T03:39:42.138Z,15.78
2019-06-26T03:40:16.528Z,17.10
2019-06-26T03:40:50.599Z,16.82
2019-06-26T03:41:24.974Z,16.55
2019-06-26T03:41:59.790Z,17.12
2019-06-26T03:42:34.284Z,15.65
2019-06-26T03:43:08.144Z,16.57
2019-06-26T03:43:42.149Z,16.30
2019-06-26T03:44:16.245Z,15.72
2019-06-26T03:44:49.930Z,16.52
2019-06-26T03:45:26.255Z,16.65
2019-06-26T03:45:59.674Z,16.90
2019-06-26T03:46:33.444Z,16.37
2019-06-26T03:47:07.467Z,16.57
2019-06-26T03:47:47.493Z,17.20
2019-06-26T03:48:21.239Z,15.70
2019-06-26T03:48:55.252Z,16.85
2019-06-26T03:49:29.219Z,15.72
2019-06-26T03:50:03.420Z,16.87
2019-06-26T03:50:37.479Z,16.95
2019-06-26T03:51:13.931Z,16.73
2019-06-26T03:51:46.876Z,15.78
2019-06-26T03:52:20.926Z,16.15
2019-06-26T03:52:54.958Z,17.65
2019-06-26T03:53:28.694Z,16.73
2019-06-26T03:54:02.668Z,17.50
2019-06-26T03:54:36.629Z,17.10
2019-06-26T03:55:10.719Z,18.10
2019-06-26T03:55:44.760Z,18.07
2019-06-26T03:56:18.841Z,16.97
2019-06-26T03:56:52.600Z,17.15
2019-06-26T03:57:26.710Z,17.27
2019-06-26T03:58:00.930Z,17.00
2019-06-26T03:58:34.654Z,16.48
2019-06-26T03:59:08.912Z,16.07
2019-06-26T03:59:43.235Z,16.32
2019-06-26T04:00:19.543Z,17.27
2019-06-26T04:00:53.980Z,17.30
2019-06-26T04:01:28.390Z,16.85
2019-06-26T04:02:02.185Z,17.80
2019-06-26T04:02:36.516Z,17.37
2019-06-26T04:03:11.789Z,17.82
2019-06-26T04:03:45.578Z,17.30
2019-06-26T04:04:19.575Z,17.27
2019-06-26T04:04:53.580Z,17.05
2019-06-26T04:05:27.155Z,17.85
2019-06-26T04:06:01.156Z,17.32
2019-06-26T04:06:35.239Z,18.12
2019-06-26T04:07:08.952Z,18.00
2019-06-26T04:07:42.867Z,17.02
2019-06-26T04:08:16.918Z,19.15
2019-06-26T04:08:50.616Z,17.90
2019-06-26T04:09:24.556Z,18.50
2019-06-26T04:09:58.602Z,17.80
2019-06-26T04:10:32.282Z,18.25
2019-06-26T04:11:06.199Z,18.60
2019-06-26T04:11:40.236Z,18.65
2019-06-26T04:12:13.749Z,18.40
2019-06-26T04:12:47.695Z,18.57
2019-06-26T04:13:22.472Z,19.27
2019-06-26T04:13:56.117Z,18.50
2019-06-26T04:14:30.191Z,19.45
2019-06-26T04:15:04.474Z,20.15
2019-06-26T04:15:42.555Z,19.57
2019-06-26T04:16:13.740Z,19.62
2019-06-26T04:16:47.802Z,19.30
2019-06-26T04:17:21.458Z,18.55
2019-06-26T04:17:55.409Z,20.50
2019-06-26T04:18:29.458Z,18.60
2019-06-26T04:19:03.033Z,18.77
2019-06-26T04:19:37.091Z,18.37
2019-06-26T04:20:11.410Z,20.00
2019-06-26T04:20:45.106Z,19.25
2019-06-26T04:21:19.150Z,19.80
2019-06-26T04:21:53.375Z,19.25
2019-06-26T04:22:27.030Z,18.70
2019-06-26T04:23:01.211Z,18.70
2019-06-26T04:23:35.377Z,20.37
2019-06-26T04:24:09.011Z,19.50
2019-06-26T04:24:43.042Z,19.17
2019-06-26T04:25:17.339Z,18.82
2019-06-26T04:25:51.242Z,18.98
2019-06-26T04:26:25.355Z,20.10
2019-06-26T04:26:59.605Z,19.37
2019-06-26T04:27:35.031Z,19.50
2019-06-26T04:28:09.071Z,19.32
2019-06-26T04:28:43.525Z,20.92
2019-06-26T04:29:17.297Z,20.70
2019-06-26T04:29:51.291Z,20.30
2019-06-26T04:30:25.363Z,21.65
2019-06-26T04:30:59.028Z,20.65
2019-06-26T04:31:33.031Z,19.90
2019-06-26T04:32:06.998Z,20.32
2019-06-26T04:32:40.613Z,20.40
2019-06-26T04:33:14.586Z,19.62
2019-06-26T04:33:48.584Z,19.30
2019-06-26T04:34:22.177Z,19.50
2019-06-26T04:34:56.112Z,18.95
2019-06-26T04:35:30.033Z,20.27
2019-06-26T04:36:03.649Z,20.05
2019-06-26T04:36:37.829Z,19.70
2019-06-26T04:37:11.742Z,19.17
2019-06-26T04:37:45.477Z,20.23
2019-06-26T04:38:19.458Z,19.25
2019-06-26T04:38:53.599Z,19.90
2019-06-26T04:39:27.133Z,19.70
2019-06-26T04:40:01.044Z,20.82
2019-06-26T04:40:35.450Z,21.93
2019-06-26T04:41:09.062Z,20.40
2019-06-26T04:41:42.996Z,20.12
2019-06-26T04:42:16.894Z,22.13
2019-06-26T04:42:50.504Z,20.80
2019-06-26T04:43:24.614Z,20.82
2019-06-26T04:43:58.576Z,20.85
2019-06-26T04:44:32.128Z,20.30
2019-06-26T04:45:06.517Z,21.80
2019-06-26T04:45:40.417Z,20.82
2019-06-26T04:46:13.966Z,21.57
2019-06-26T04:46:47.957Z,20.90
2019-06-26T04:47:22.045Z,21.77
2019-06-26T04:47:55.613Z,21.42
2019-06-26T04:48:29.708Z,19.95
2019-06-26T04:49:03.713Z,21.35
2019-06-26T04:49:37.391Z,21.20
2019-06-26T04:50:11.850Z,22.82
2019-06-26T04:50:45.986Z,20.40
2019-06-26T04:51:19.591Z,21.12
2019-06-26T04:51:53.651Z,20.75
2019-06-26T04:52:27.620Z,20.45
2019-06-26T04:53:01.149Z,20.92
2019-06-26T04:53:35.154Z,21.90
2019-06-26T04:54:09.154Z,22.22
2019-06-26T04:54:42.844Z,22.25
2019-06-26T04:55:16.905Z,22.15
2019-06-26T04:55:50.896Z,20.97
2019-06-26T04:56:24.678Z,21.90
2019-06-26T04:56:58.845Z,22.55
2019-06-26T04:57:32.962Z,21.48
2019-06-26T04:58:06.668Z,21.25
2019-06-26T04:58:41.052Z,20.75
2019-06-26T04:59:15.172Z,20.68
2019-06-26T04:59:48.702Z,22.17
2019-06-26T05:00:24.146Z,22.15
2019-06-26T05:00:58.080Z,22.82
2019-06-26T05:01:31.777Z,23.15
2019-06-26T05:02:05.958Z,23.20
2019-06-26T05:02:40.278Z,21.45
2019-06-26T05:03:14.291Z,21.57
2019-06-26T05:03:48.855Z,21.77
2019-06-26T05:04:22.944Z,23.65
2019-06-26T05:04:56.576Z,20.60
2019-06-26T05:05:39.466Z,23.00
2019-06-26T05:06:06.448Z,20.60
2019-06-26T05:06:40.364Z,22.75
2019-06-26T05:07:14.366Z,22.40
2019-06-26T05:07:48.711Z,21.37
2019-06-26T05:08:22.494Z,22.45
2019-06-26T05:08:56.568Z,21.87
2019-06-26T05:09:30.704Z,21.40
2019-06-26T05:10:04.753Z,21.20
2019-06-26T05:10:38.995Z,22.50
2019-06-26T05:11:13.235Z,21.30
2019-06-26T05:11:46.896Z,21.35
2019-06-26T05:12:21.231Z,24.30
2019-06-26T05:12:55.471Z,22.30
2019-06-26T05:13:29.146Z,22.52
2019-06-26T05:14:03.267Z,22.50
2019-06-26T05:14:37.300Z,23.83
2019-06-26T05:15:12.264Z,23.35
2019-06-26T05:15:46.314Z,22.62
2019-06-26T05:16:20.732Z,22.25
2019-06-26T05:16:54.641Z,23.70
2019-06-26T05:17:28.663Z,22.52
2019-06-26T05:18:02.667Z,22.73
2019-06-26T05:18:36.527Z,20.92
2019-06-26T05:19:10.649Z,22.27
2019-06-26T05:19:44.601Z,23.83
2019-06-26T05:20:19.530Z,22.40
2019-06-26T05:20:53.582Z,23.05
2019-06-26T05:21:27.478Z,22.65
2019-06-26T05:22:01.075Z,23.32
2019-06-26T05:22:35.228Z,23.60
2019-06-26T05:23:09.237Z,22.67
2019-06-26T05:23:42.791Z,22.45
2019-06-26T05:24:16.981Z,22.85
2019-06-26T05:24:51.187Z,23.25
2019-06-26T05:25:24.703Z,23.70
2019-06-26T05:25:58.716Z,22.55
2019-06-26T05:26:32.886Z,22.22
2019-06-26T05:27:06.599Z,23.10
2019-06-26T05:27:40.927Z,21.90
2019-06-26T05:28:15.125Z,22.42
2019-06-26T05:28:48.755Z,21.48
2019-06-26T05:29:23.123Z,23.70
2019-06-26T05:29:57.202Z,21.77
2019-06-26T05:30:30.949Z,24.00
2019-06-26T05:31:05.359Z,22.55
2019-06-26T05:31:39.962Z,22.70
2019-06-26T05:32:13.631Z,22.75
2019-06-26T05:32:47.611Z,23.67
2019-06-26T05:33:21.592Z,23.90
2019-06-26T05:33:55.356Z,22.90
2019-06-26T05:34:29.368Z,23.00
2019-06-26T05:35:03.439Z,22.62
2019-06-26T05:35:37.010Z,22.77
2019-06-26T05:36:11.158Z,23.60
2019-06-26T05:36:45.088Z,21.87
2019-06-26T05:37:18.708Z,22.95
2019-06-26T05:37:52.649Z,24.30
2019-06-26T05:38:26.705Z,23.45
2019-06-26T05:39:00.399Z,23.77
2019-06-26T05:39:34.386Z,23.57
2019-06-26T05:40:09.156Z,23.90
2019-06-26T05:40:42.760Z,24.10
2019-06-26T05:41:16.838Z,23.77
2019-06-26T05:41:51.122Z,23.27
2019-06-26T05:42:24.671Z,22.40
2019-06-26T05:42:58.834Z,24.60
2019-06-26T05:43:32.860Z,22.50
2019-06-26T05:44:06.626Z,23.12
2019-06-26T05:44:40.721Z,23.12
2019-06-26T05:45:15.323Z,21.93
2019-06-26T05:45:48.863Z,23.07
2019-06-26T05:46:30.993Z,23.62
2019-06-26T05:46:59.005Z,23.62
2019-06-26T05:47:32.758Z,23.05
2019-06-26T05:48:06.929Z,23.83
2019-06-26T05:48:40.840Z,23.87
2019-06-26T05:49:14.619Z,22.50
2019-06-26T05:49:48.538Z,23.25
2019-06-26T05:50:24.817Z,22.80
2019-06-26T05:50:58.337Z,22.90
2019-06-26T05:51:32.436Z,24.15
2019-06-26T05:52:06.537Z,23.42
2019-06-26T05:52:42.823Z,22.27
2019-06-26T05:53:15.846Z,22.77
2019-06-26T05:53:49.949Z,23.52
2019-06-26T05:54:23.697Z,24.52
2019-06-26T05:54:57.810Z,23.15
2019-06-26T05:55:31.806Z,23.05
2019-06-26T05:56:06.170Z,23.47
2019-06-26T05:56:40.291Z,23.42
2019-06-26T05:57:14.335Z,22.27
2019-06-26T05:57:48.637Z,22.93
2019-06-26T05:58:22.710Z,23.22
2019-06-26T05:58:56.687Z,23.25
2019-06-26T05:59:30.395Z,22.80
2019-06-26T06:00:04.558Z,24.45
2019-06-26T06:00:38.567Z,23.27
2019-06-26T06:01:12.550Z,23.75
2019-06-26T06:01:46.495Z,22.30
2019-06-26T06:02:20.528Z,23.57
2019-06-26T06:02:54.222Z,22.98
2019-06-26T06:03:28.432Z,23.07
2019-06-26T06:04:02.421Z,24.15
2019-06-26T06:04:35.990Z,24.20
2019-06-26T06:05:11.578Z,23.80
2019-06-26T06:05:45.570Z,22.90
2019-06-26T06:06:19.243Z,24.57
2019-06-26T06:06:53.290Z,23.67
2019-06-26T06:07:27.351Z,22.82
2019-06-26T06:08:01.023Z,21.90
2019-06-26T06:08:34.995Z,24.02
2019-06-26T06:09:08.991Z,21.77
2019-06-26T06:09:42.539Z,26.65
2019-06-26T06:10:16.831Z,23.05
2019-06-26T06:10:50.817Z,23.10
2019-06-26T06:11:24.506Z,22.87
2019-06-26T06:11:58.460Z,22.82
2019-06-26T06:12:32.526Z,23.00
2019-06-26T06:13:06.125Z,23.22
2019-06-26T06:13:40.052Z,23.45
2019-06-26T06:14:13.997Z,23.18
2019-06-26T06:14:47.597Z,22.85
2019-06-26T06:15:21.565Z,21.70
2019-06-26T06:15:55.606Z,24.07
2019-06-26T06:16:29.288Z,23.20
2019-06-26T06:17:03.354Z,22.55
2019-06-26T06:17:37.377Z,22.40
2019-06-26T06:18:12.231Z,23.00
2019-06-26T06:18:46.181Z,23.00
2019-06-26T06:19:20.087Z,22.73
2019-06-26T06:19:55.370Z,22.27
2019-06-26T06:20:34.268Z,23.12
2019-06-26T06:21:11.344Z,23.05
2019-06-26T06:21:46.291Z,22.32
2019-06-26T06:22:21.472Z,23.10
2019-06-26T06:22:56.683Z,22.98
2019-06-26T06:23:31.082Z,22.45
2019-06-26T06:24:06.566Z,22.82
2019-06-26T06:24:42.294Z,23.67
2019-06-26T06:25:16.290Z,23.65
2019-06-26T06:25:51.529Z,23.47
2019-06-26T06:26:26.980Z,22.37
2019-06-26T06:27:03.233Z,22.20
2019-06-26T06:27:39.320Z,21.77
2019-06-26T06:28:19.440Z,21.27
2019-06-26T06:28:55.011Z,22.48
2019-06-26T06:29:34.025Z,22.42
2019-06-26T06:30:10.070Z,20.62
2019-06-26T06:30:45.076Z,22.62
2019-06-26T06:31:20.731Z,21.37
2019-06-26T06:31:55.910Z,22.10
2019-06-26T06:32:30.883Z,21.75
2019-06-26T06:33:05.490Z,21.85
2019-06-26T06:33:40.575Z,22.20
2019-06-26T06:34:15.684Z,21.60
2019-06-26T06:34:51.400Z,21.00
2019-06-26T06:35:26.859Z,21.35
2019-06-26T06:36:01.666Z,21.37
2019-06-26T06:36:36.747Z,21.05
2019-06-26T06:37:11.936Z,22.50
2019-06-26T06:37:46.567Z,22.07
2019-06-26T06:38:22.009Z,21.37
2019-06-26T06:38:57.442Z,21.00
2019-06-26T06:39:32.137Z,21.30
2019-06-26T06:40:07.401Z,20.77
2019-06-26T06:40:42.305Z,21.95
2019-06-26T06:41:36.081Z,22.48
2019-06-26T06:42:11.212Z,21.12
2019-06-26T06:42:46.490Z,21.80
2019-06-26T06:43:21.067Z,20.05
2019-06-26T06:43:55.990Z,22.17
2019-06-26T06:44:31.181Z,20.77
2019-06-26T06:45:06.414Z,22.55
2019-06-26T06:45:41.927Z,21.20
2019-06-26T06:46:17.053Z,21.85
2019-06-26T06:47:03.298Z,21.33
2019-06-26T06:47:28.493Z,20.35
2019-06-26T06:48:02.420Z,20.82
2019-06-26T06:48:35.945Z,20.60
2019-06-26T06:49:09.847Z,21.45
2019-06-26T06:49:44.084Z,22.73
2019-06-26T06:50:17.644Z,21.68
2019-06-26T06:50:51.582Z,22.02
2019-06-26T06:51:25.605Z,20.85
2019-06-26T06:51:59.144Z,22.15
2019-06-26T06:52:33.064Z,21.60
2019-06-26T06:53:07.097Z,21.45
2019-06-26T06:53:40.676Z,20.50
2019-06-26T06:54:14.589Z,21.62
2019-06-26T06:54:48.525Z,21.60
2019-06-26T06:55:22.089Z,22.40
2019-06-26T06:55:56.047Z,20.92
2019-06-26T06:56:30.195Z,22.35
2019-06-26T06:57:03.879Z,21.68
2019-06-26T06:57:37.779Z,21.55
2019-06-26T06:58:11.707Z,21.00
2019-06-26T06:58:45.280Z,20.00
2019-06-26T06:59:19.272Z,22.05
2019-06-26T06:59:54.628Z,21.02
2019-06-26T07:00:28.807Z,21.45
2019-06-26T07:01:08.810Z,21.45
2019-06-26T07:01:42.758Z,20.65
2019-06-26T07:02:16.346Z,20.45
2019-06-26T07:02:50.301Z,20.43
2019-06-26T07:03:24.259Z,20.95
2019-06-26T07:03:59.189Z,19.40
2019-06-26T07:04:33.380Z,20.80
2019-06-26T07:05:08.964Z,19.75
2019-06-26T07:05:42.590Z,20.08
2019-06-26T07:06:16.792Z,19.42
2019-06-26T07:06:51.067Z,19.62
2019-06-26T07:07:25.074Z,19.67
2019-06-26T07:07:59.022Z,19.55
2019-06-26T07:08:33.104Z,19.50
2019-06-26T07:09:06.930Z,19.85
2019-06-26T07:09:40.907Z,20.45
2019-06-26T07:10:14.906Z,20.95
2019-06-26T07:10:48.511Z,19.77
2019-06-26T07:11:22.682Z,18.92
2019-06-26T07:11:57.099Z,20.00
2019-06-26T07:12:30.638Z,20.08
2019-06-26T07:13:05.468Z,19.45
2019-06-26T07:13:39.353Z,18.52
2019-06-26T07:14:12.937Z,19.57
2019-06-26T07:14:46.930Z,20.23
2019-06-26T07:15:21.232Z,19.75
2019-06-26T07:15:54.838Z,18.65
2019-06-26T07:16:28.829Z,19.07
2019-06-26T07:17:18.887Z,18.75
2019-06-26T07:17:37.964Z,19.50
2019-06-26T07:18:12.000Z,17.60
2019-06-26T07:18:45.950Z,18.20
2019-06-26T07:19:19.525Z,18.48
2019-06-26T07:19:53.531Z,17.98
2019-06-26T07:20:27.482Z,18.37
2019-06-26T07:21:01.177Z,17.10
2019-06-26T07:21:35.110Z,16.12
2019-06-26T07:22:09.008Z,15.45
2019-06-26T07:22:42.528Z,15.55